Time;durP1;ratioP1;P1;durP2;ratioP2;P2;SDS_P1;SDS_P2;PMS_P1;PMS_P2;Temp;Humidity;BMP_temperature;BMP_pressure;BME280_temperature;BME280_humidity;BME280_pressure;Samples;Min_cycle;Max_cycle;Signal;HPM_P1;HPM_P2
2021/03/30 00:01:52;;;;;;;3.15;1.30;;;;;;;11.53;43.29;99142.72;10122653;29;20048;-78
2021/03/30 00:07:12;;;;;;;7.03;1.75;;;;;;;11.53;43.26;99142.72;10111362;29;20093;-79
2021/03/30 00:12:31;;;;;;;5.60;1.67;;;;;;;11.55;42.94;99145.66;10097569;29;20045;-78
2021/03/30 00:17:52;;;;;;;8.75;1.60;;;;;;;11.50;43.05;99141.78;10097071;29;20045;-78
2021/03/30 00:23:12;;;;;;;6.75;1.98;;;;;;;11.44;43.04;99144.06;10111388;29;20063;-79
2021/03/30 00:28:32;;;;;;;5.18;1.60;;;;;;;11.37;43.21;99139.25;10124071;29;20366;-78
2021/03/30 00:33:52;;;;;;;4.68;1.40;;;;;;;11.32;43.23;99137.44;10109866;29;20531;-78
2021/03/30 00:39:11;;;;;;;3.90;1.45;;;;;;;11.24;43.45;99137.47;10122854;29;20045;-78
2021/03/30 00:44:31;;;;;;;5.70;1.90;;;;;;;11.20;43.50;99139.16;10124104;29;20478;-79
2021/03/30 00:49:51;;;;;;;4.63;1.60;;;;;;;11.13;43.75;99143.47;10096625;29;20404;-78
2021/03/30 00:55:12;;;;;;;7.97;1.90;;;;;;;11.10;43.35;99144.63;10101452;29;20063;-78
2021/03/30 01:01:04;;;;;;;3.95;1.67;;;;;;;11.03;43.84;99145.38;10116401;29;20048;-78
2021/03/30 01:06:24;;;;;;;3.92;1.48;;;;;;;11.03;43.60;99154.50;10102713;29;20418;-78
2021/03/30 01:12:14;;;;;;;5.25;1.35;;;;;;;11.01;43.82;99140.38;10102208;29;20045;-79
2021/03/30 01:17:40;;;;;;;6.07;1.60;;;;;;;11.02;43.77;99155.06;10128779;29;20040;-78
2021/03/30 01:23:06;;;;;;;3.80;1.40;;;;;;;11.00;43.45;99158.44;10103951;29;20048;-79
2021/03/30 01:28:42;;;;;;;4.97;1.33;;;;;;;10.96;43.72;99152.47;10128077;29;20045;-78
2021/03/30 01:34:01;;;;;;;5.20;1.80;;;;;;;10.90;43.70;99154.72;10128075;29;20044;-79
2021/03/30 01:39:22;;;;;;;4.22;1.30;;;;;;;10.81;43.68;99147.69;10114716;29;20044;-78
2021/03/30 01:44:41;;;;;;;5.30;1.60;;;;;;;10.72;43.76;99150.34;10101476;29;20049;-79
2021/03/30 01:50:01;;;;;;;4.30;1.70;;;;;;;10.66;43.94;99152.56;10127176;29;20048;-78
2021/03/30 01:55:22;;;;;;;6.18;1.77;;;;;;;10.59;43.75;99134.53;10114019;29;20456;-78
2021/03/30 02:00:42;;;;;;;4.10;1.35;;;;;;;10.57;44.40;99139.94;10100610;29;20070;-78
2021/03/30 02:06:01;;;;;;;6.43;1.67;;;;;;;10.54;43.86;99147.41;10127349;29;20467;-78
2021/03/30 02:11:46;;;;;;;5.45;1.40;;;;;;;10.53;44.41;99145.16;10127166;29;20057;-79
2021/03/30 02:17:04;;;;;;;4.45;1.67;;;;;;;10.52;44.40;99133.25;10131064;29;20369;-79
2021/03/30 02:22:34;;;;;;;5.32;1.48;;;;;;;10.47;44.20;99139.78;10101289;29;20044;-78
2021/03/30 02:27:54;;;;;;;6.60;1.88;;;;;;;10.38;44.34;99134.75;10113049;29;20052;-78
2021/03/30 02:33:19;;;;;;;4.28;1.33;;;;;;;10.32;44.51;99137.00;10086966;29;20052;-80
2021/03/30 02:38:38;;;;;;;7.32;2.17;;;;;;;10.30;44.55;99139.59;10100959;29;20048;-79
2021/03/30 02:43:59;;;;;;;5.25;1.63;;;;;;;10.25;44.64;99146.13;10112816;29;20369;-79
2021/03/30 02:49:19;;;;;;;5.88;1.60;;;;;;;10.20;44.74;99144.25;10112598;29;20400;-78
2021/03/30 02:54:38;;;;;;;7.93;1.90;;;;;;;10.16;44.79;99141.09;10113248;29;20060;-78
2021/03/30 02:59:59;;;;;;;5.03;1.90;;;;;;;10.14;44.91;99133.28;10099672;29;20048;-79
2021/03/30 03:05:18;;;;;;;4.20;1.52;;;;;;;10.12;44.80;99135.13;10111342;29;20044;-78
2021/03/30 03:10:38;;;;;;;6.10;1.52;;;;;;;10.09;45.48;99147.41;10111252;29;20059;-79
2021/03/30 03:15:58;;;;;;;9.10;1.65;;;;;;;10.07;44.79;99133.28;10111038;29;20056;-78
2021/03/30 03:21:18;;;;;;;5.07;1.40;;;;;;;10.02;45.15;99149.63;10123858;29;20481;-79
2021/03/30 03:26:39;;;;;;;3.33;1.45;;;;;;;10.00;45.12;99146.66;10110592;29;20108;-79
2021/03/30 03:31:58;;;;;;;5.60;1.70;;;;;;;9.95;45.28;99155.97;10110520;29;20108;-79
2021/03/30 03:37:18;;;;;;;4.53;1.50;;;;;;;9.93;45.38;99150.19;10109841;29;20048;-78
2021/03/30 03:42:38;;;;;;;4.32;1.50;;;;;;;9.87;44.98;99146.84;10096716;29;20480;-78
2021/03/30 03:47:58;;;;;;;3.90;1.30;;;;;;;9.85;45.35;99163.41;10096080;29;20048;-79
2021/03/30 03:53:18;;;;;;;3.60;1.30;;;;;;;9.81;45.05;99157.44;10096463;29;20056;-79
2021/03/30 03:58:40;;;;;;;3.72;1.58;;;;;;;9.81;45.01;99160.22;10069897;29;20045;-79
2021/03/30 04:04:01;;;;;;;6.60;1.67;;;;;;;9.81;45.46;99168.59;10084396;29;20056;-78
2021/03/30 04:09:21;;;;;;;3.47;1.48;;;;;;;9.81;45.47;99163.00;10086262;29;20049;-78
2021/03/30 04:14:41;;;;;;;5.85;1.70;;;;;;;9.79;45.28;99165.63;10084564;29;20068;-79
2021/03/30 04:20:10;;;;;;;3.10;1.25;;;;;;;9.77;45.37;99179.38;10098271;29;20468;-78
2021/03/30 04:25:30;;;;;;;9.30;1.45;;;;;;;9.77;45.47;99173.06;10084107;29;20444;-78
2021/03/30 04:30:50;;;;;;;6.00;1.58;;;;;;;9.77;45.45;99179.38;10104615;29;20045;-78
2021/03/30 04:36:09;;;;;;;5.53;1.73;;;;;;;9.77;45.09;99175.84;10093507;29;20055;-79
2021/03/30 04:41:29;;;;;;;4.78;1.60;;;;;;;9.74;45.03;99181.22;10079297;29;20117;-78
2021/03/30 04:46:49;;;;;;;4.45;1.42;;;;;;;9.73;45.45;99173.41;10093356;29;20396;-78
2021/03/30 04:52:10;;;;;;;6.60;1.13;;;;;;;9.77;45.43;99184.97;10105718;29;20048;-79
2021/03/30 04:57:29;;;;;;;7.25;1.63;;;;;;;9.87;45.24;99188.69;10110294;29;20391;-79
2021/03/30 05:02:49;;;;;;;6.57;1.85;;;;;;;10.08;45.41;99193.34;10117517;29;20045;-79
2021/03/30 05:08:09;;;;;;;3.97;1.60;;;;;;;10.38;44.77;99201.75;10117036;29;20045;-79
2021/03/30 05:13:30;;;;;;;5.45;1.80;;;;;;;10.71;44.80;99197.06;10130242;29;20496;-78
2021/03/30 05:18:50;;;;;;;7.97;2.08;;;;;;;11.10;44.58;99215.22;10116352;29;20403;-78
2021/03/30 05:24:10;;;;;;;6.93;2.60;;;;;;;11.54;44.08;99209.25;10129266;29;20049;-79
2021/03/30 05:29:29;;;;;;;5.88;1.75;;;;;;;12.07;43.50;99211.03;10116391;29;20053;-78
2021/03/30 05:34:50;;;;;;;3.60;1.67;;;;;;;12.75;42.65;99223.69;10116398;29;20049;-78
2021/03/30 05:40:12;;;;;;;5.75;2.10;;;;;;;13.58;42.19;99226.13;10116405;29;20044;-78
2021/03/30 05:45:34;;;;;;;7.15;2.30;;;;;;;14.78;41.13;99226.94;10117422;29;20392;-78
2021/03/30 05:50:57;;;;;;;9.27;2.22;;;;;;;17.42;38.58;99228.38;10129980;29;20047;-78
2021/03/30 05:56:17;;;;;;;7.35;2.28;;;;;;;24.70;36.04;99234.09;10129282;29;20460;-78
2021/03/30 06:01:37;;;;;;;11.50;4.13;;;;;;;30.32;28.79;99247.66;10099742;29;20061;-79
2021/03/30 06:06:57;;;;;;;18.98;3.50;;;;;;;34.70;22.08;99255.84;10112806;29;20048;-79
2021/03/30 06:12:17;;;;;;;11.10;3.13;;;;;;;38.19;16.37;99258.09;10112769;29;20055;-79
2021/03/30 06:17:42;;;;;;;10.18;2.17;;;;;;;41.27;12.12;99260.28;10112360;29;20045;-82
2021/03/30 06:23:05;;;;;;;6.45;1.80;;;;;;;44.05;9.47;99262.81;10125455;29;20481;-78
2021/03/30 06:28:27;;;;;;;10.00;1.85;;;;;;;46.38;7.44;99263.88;10125076;29;20052;-77
2021/03/30 06:33:56;;;;;;;10.60;2.00;;;;;;;48.73;5.61;99269.16;10112047;29;20050;-76
2021/03/30 06:39:16;;;;;;;5.90;1.42;;;;;;;50.34;4.04;99270.09;10125243;29;20049;-77
2021/03/30 06:44:37;;;;;;;6.90;1.77;;;;;;;51.39;3.17;99267.56;10111456;29;20060;-76
2021/03/30 06:50:04;;;;;;;5.60;1.58;;;;;;;53.46;2.20;99268.03;10124060;29;20044;-76
2021/03/30 06:55:29;;;;;;;4.90;1.63;;;;;;;55.26;1.38;99267.03;10110448;29;20060;-77
2021/03/30 07:00:49;;;;;;;6.13;1.23;;;;;;;56.73;1.39;99257.34;10116584;29;20052;-76
2021/03/30 07:06:14;;;;;;;5.65;1.58;;;;;;;57.61;0.65;99260.44;10084982;29;20049;-77
2021/03/30 07:11:34;;;;;;;2.72;1.20;;;;;;;58.86;0.11;99260.69;10098093;29;20048;-76
2021/03/30 07:16:55;;;;;;;2.63;1.40;;;;;;;59.76;0.00;99251.44;10093340;29;20049;-77
2021/03/30 07:22:14;;;;;;;4.53;1.08;;;;;;;60.41;0.00;99255.31;10109757;29;20108;-74
2021/03/30 07:27:57;;;;;;;2.92;1.33;;;;;;;61.00;0.00;99248.41;10122717;29;20048;-76
2021/03/30 07:33:36;;;;;;;3.33;1.50;;;;;;;62.55;0.00;99232.53;10135526;29;20072;-74
2021/03/30 07:39:00;;;;;;;3.58;1.42;;;;;;;62.66;0.00;99226.56;10110011;29;20408;-76
2021/03/30 07:44:20;;;;;;;6.35;1.67;;;;;;;62.76;0.00;99219.25;10122184;29;20153;-77
2021/03/30 07:49:54;;;;;;;4.63;1.13;;;;;;;63.23;0.00;99215.56;10109350;29;20048;-78
2021/03/30 07:55:21;;;;;;;4.57;1.47;;;;;;;61.04;0.00;99214.75;10110291;29;20087;-77
2021/03/30 08:00:46;;;;;;;4.03;1.60;;;;;;;60.83;0.00;99209.75;10121699;29;20488;-80
2021/03/30 08:06:20;;;;;;;7.43;1.75;;;;;;;59.45;0.00;99206.00;10134646;29;20507;-81
2021/03/30 08:11:40;;;;;;;3.03;1.45;;;;;;;61.12;0.00;99201.72;10120287;29;20040;-78
2021/03/30 08:17:01;;;;;;;3.80;1.45;;;;;;;62.61;0.00;99204.53;10121557;29;20108;-82
2021/03/30 08:22:22;;;;;;;5.50;1.63;;;;;;;64.01;0.00;99216.59;10108477;29;20056;-85
2021/03/30 08:27:44;;;;;;;3.67;1.40;;;;;;;64.44;0.00;99216.25;10121918;29;20416;-81
2021/03/30 08:33:04;;;;;;;5.20;1.40;;;;;;;64.98;0.00;99223.28;10095370;29;20044;-76
2021/03/30 08:38:41;;;;;;;2.97;1.30;;;;;;;65.37;0.00;99227.75;10108221;29;20062;-76
2021/03/30 08:44:29;;;;;;;3.95;1.65;;;;;;;65.08;0.00;99224.91;10105349;29;20089;-77
2021/03/30 08:49:49;;;;;;;4.90;1.30;;;;;;;64.98;0.00;99220.25;10108218;29;20040;-81
2021/03/30 08:55:09;;;;;;;5.72;1.80;;;;;;;65.69;0.00;99221.16;10081670;29;20060;-81
2021/03/30 09:00:29;;;;;;;7.13;1.85;;;;;;;65.72;0.00;99216.84;10097875;29;20040;-80
2021/03/30 09:05:49;;;;;;;3.30;1.58;;;;;;;65.33;0.00;99221.53;10075554;29;20521;-78
2021/03/30 09:11:21;;;;;;;4.10;1.58;;;;;;;63.38;0.00;99200.66;10078278;29;20104;-79
2021/03/30 09:16:41;;;;;;;2.63;1.30;;;;;;;62.47;0.00;99209.38;10128585;29;20052;-79
2021/03/30 09:22:08;;;;;;;5.90;1.80;;;;;;;59.95;0.00;99204.88;10116321;29;20041;-79
2021/03/30 09:27:34;;;;;;;4.53;2.00;;;;;;;59.30;0.00;99200.91;10120867;29;20044;-80
2021/03/30 09:32:55;;;;;;;4.38;1.60;;;;;;;56.62;0.00;99196.31;10096698;29;20044;-77
2021/03/30 09:38:16;;;;;;;7.70;1.85;;;;;;;56.10;0.00;99196.94;10114135;29;20051;-77
2021/03/30 09:43:35;;;;;;;5.65;2.10;;;;;;;58.19;0.00;99192.78;10101212;29;20056;-77
2021/03/30 09:48:56;;;;;;;3.80;1.80;;;;;;;59.34;0.00;99196.03;10100630;29;20500;-75
2021/03/30 09:54:38;;;;;;;3.75;1.42;;;;;;;59.56;0.00;99202.59;10117348;29;20061;-78
2021/03/30 09:59:59;;;;;;;5.28;1.70;;;;;;;60.41;0.00;99198.03;10098535;29;20540;-78
2021/03/30 10:05:19;;;;;;;5.80;1.77;;;;;;;60.17;0.00;99191.88;10092387;29;20056;-79
2021/03/30 10:10:41;;;;;;;5.82;1.77;;;;;;;58.55;0.00;99176.13;10094540;29;20055;-82
2021/03/30 10:16:06;;;;;;;6.65;2.15;;;;;;;59.52;0.00;99184.94;10092042;29;20040;-81
2021/03/30 10:21:37;;;;;;;4.82;2.28;;;;;;;59.99;0.00;99179.63;10093396;29;20044;-80
2021/03/30 10:27:03;;;;;;;4.38;1.88;;;;;;;59.97;0.00;99170.81;10080135;29;20084;-80
2021/03/30 10:32:23;;;;;;;5.22;2.38;;;;;;;59.09;0.00;99165.00;10116295;29;20045;-80
2021/03/30 10:37:43;;;;;;;4.78;2.25;;;;;;;56.19;0.00;99152.59;10092961;29;20049;-80
2021/03/30 10:43:25;;;;;;;5.10;2.30;;;;;;;49.62;0.78;99155.72;10102334;29;20100;-80
2021/03/30 10:49:05;;;;;;;3.92;1.90;;;;;;;44.51;2.74;99173.91;10115527;29;20041;-84
2021/03/30 10:54:25;;;;;;;6.45;2.25;;;;;;;43.20;3.27;99167.28;10122953;29;20056;-78
2021/03/30 10:59:45;;;;;;;7.50;2.28;;;;;;;41.96;3.70;99157.53;10102103;29;20416;-79
2021/03/30 11:05:06;;;;;;;7.32;2.92;;;;;;;40.22;4.19;99164.78;10101750;29;20036;-80
2021/03/30 11:10:26;;;;;;;4.95;2.45;;;;;;;38.69;4.56;99159.34;10112751;29;20052;-78
2021/03/30 11:15:46;;;;;;;6.80;2.58;;;;;;;37.77;5.51;99155.47;10134666;29;20055;-79
2021/03/30 11:21:06;;;;;;;4.40;2.45;;;;;;;37.07;5.64;99147.25;10135934;29;20096;-79
2021/03/30 11:26:26;;;;;;;;;;;;;;;36.31;6.40;99147.66;10136261;29;20492;-78
2021/03/30 11:42:47;;;;;;;7.32;3.33;;;;;;;33.03;8.39;99131.78;10108843;29;20401;-76
2021/03/30 11:48:07;;;;;;;7.43;2.80;;;;;;;32.36;8.79;99134.59;10095992;29;20044;-78
2021/03/30 11:53:28;;;;;;;4.30;2.60;;;;;;;32.37;9.01;99124.50;10094037;29;20069;-78
2021/03/30 11:58:48;;;;;;;6.22;2.63;;;;;;;32.14;9.17;99120.81;10078496;29;20048;-78
2021/03/30 12:04:07;;;;;;;6.68;2.78;;;;;;;32.14;9.41;99115.75;10118436;29;20051;-79
2021/03/30 12:09:27;;;;;;;7.35;2.60;;;;;;;31.22;9.78;99099.41;10106828;29;20041;-77
2021/03/30 12:14:47;;;;;;;4.90;2.58;;;;;;;30.71;10.32;99101.91;10107153;29;20480;-78
2021/03/30 12:20:09;;;;;;;3.90;2.72;;;;;;;30.14;10.20;99089.81;10107197;29;20041;-78
2021/03/30 12:25:29;;;;;;;9.20;2.65;;;;;;;29.96;10.77;99089.56;10119440;29;20081;-78
2021/03/30 12:30:49;;;;;;;10.80;2.50;;;;;;;29.89;10.82;99068.63;10119655;29;20045;-78
2021/03/30 12:36:09;;;;;;;8.48;2.17;;;;;;;29.29;11.27;99072.88;10106628;29;20044;-78
2021/03/30 12:41:30;;;;;;;11.13;2.25;;;;;;;29.34;11.08;99067.94;10106459;29;20473;-83
2021/03/30 12:46:50;;;;;;;5.83;2.00;;;;;;;29.47;11.32;99060.19;10119604;29;20055;-77
2021/03/30 12:52:10;;;;;;;5.28;2.25;;;;;;;29.32;11.46;99059.25;10124509;29;20498;-80
2021/03/30 12:57:29;;;;;;;5.30;1.95;;;;;;;29.03;11.76;99038.03;10093843;29;618731;-79
2021/03/30 13:02:49;;;;;;;5.82;2.33;;;;;;;28.51;11.87;99042.22;10128481;29;20400;-80
2021/03/30 13:08:10;;;;;;;4.90;1.90;;;;;;;28.37;12.21;99032.63;10115025;29;20055;-80
2021/03/30 13:13:30;;;;;;;5.03;2.30;;;;;;;28.31;12.00;99032.56;10133835;29;20040;-84
2021/03/30 13:18:50;;;;;;;5.45;1.75;;;;;;;28.18;12.11;99029.44;10103763;29;20052;-79
2021/03/30 13:24:12;;;;;;;3.88;2.10;;;;;;;27.95;12.44;99031.16;10127824;29;20049;-80
2021/03/30 13:29:32;;;;;;;3.15;1.50;;;;;;;27.62;12.67;99026.94;10127419;29;20037;-81
2021/03/30 13:34:52;;;;;;;2.63;1.40;;;;;;;27.41;12.75;99027.94;10070696;29;20408;-80
2021/03/30 13:40:12;;;;;;;5.25;1.48;;;;;;;27.35;12.71;99014.19;10075617;29;20069;-82
2021/03/30 13:45:33;;;;;;;5.28;1.55;;;;;;;27.19;13.43;99013.84;10075228;29;20049;-80
2021/03/30 13:50:54;;;;;;;3.88;1.40;;;;;;;27.13;13.69;99005.13;10075379;29;20041;-83
2021/03/30 13:56:13;;;;;;;4.07;1.20;;;;;;;27.00;13.79;98991.91;10099365;29;20056;-79
2021/03/30 14:01:35;;;;;;;2.20;1.02;;;;;;;26.70;13.62;98989.09;10140654;29;20044;-82
2021/03/30 14:06:55;;;;;;;7.05;1.50;;;;;;;26.48;13.87;98990.03;10108894;29;20040;-81
2021/03/30 14:12:21;;;;;;;4.20;1.27;;;;;;;26.31;14.08;98976.69;10139554;29;20037;-81
2021/03/30 14:17:43;;;;;;;4.18;1.10;;;;;;;26.25;13.97;98982.28;10115997;29;20044;-83
2021/03/30 14:23:35;;;;;;;6.03;1.45;;;;;;;26.29;14.46;98976.63;10103565;29;20052;-84
2021/03/30 14:28:55;;;;;;;2.97;1.00;;;;;;;26.08;14.04;98975.41;10120755;29;20486;-86
2021/03/30 14:34:15;;;;;;;1.23;0.73;;;;;;;25.96;14.18;98967.25;10125680;29;20374;-90
2021/03/30 14:39:36;;;;;;;4.90;1.33;;;;;;;25.90;14.10;98967.09;10112827;29;20041;-88
2021/03/30 15:06:55;;;;;;;2.85;0.70;;;;;;;25.05;14.42;98950.41;10118241;29;20047;-79
2021/03/30 15:12:15;;;;;;;2.60;1.05;;;;;;;24.93;14.63;98942.19;10125692;29;20409;-78
2021/03/30 15:17:35;;;;;;;2.78;0.90;;;;;;;24.72;14.81;98940.84;10126080;29;20040;-76
2021/03/30 15:22:54;;;;;;;3.63;1.00;;;;;;;24.48;15.24;98928.69;10097825;29;20040;-78
2021/03/30 15:28:15;;;;;;;2.22;1.02;;;;;;;24.30;15.37;98925.22;10095040;29;20052;-76
2021/03/30 15:33:35;;;;;;;3.85;1.17;;;;;;;24.26;15.47;98931.53;10115766;29;20108;-74
2021/03/30 15:38:55;;;;;;;4.22;1.00;;;;;;;24.08;15.77;98933.78;10094654;29;20052;-73
2021/03/30 15:44:27;;;;;;;5.90;1.10;;;;;;;23.90;15.75;98928.19;10107677;29;20412;-75
2021/03/30 15:49:52;;;;;;;6.03;1.23;;;;;;;23.72;15.82;98924.72;10097136;29;20100;-75
2021/03/30 15:55:13;;;;;;;5.07;0.98;;;;;;;23.56;16.07;98925.63;10107146;29;20052;-78
2021/03/30 16:00:34;;;;;;;2.80;1.02;;;;;;;23.40;16.14;98922.19;10079391;29;20104;-82
2021/03/30 16:05:54;;;;;;;5.85;1.40;;;;;;;23.30;16.43;98927.53;10106887;29;20044;-84
2021/03/30 16:11:14;;;;;;;4.35;1.65;;;;;;;23.18;16.66;98912.84;10119676;29;20044;-83
2021/03/30 16:16:34;;;;;;;5.32;1.25;;;;;;;23.02;16.75;98918.69;10106774;29;20143;-83
2021/03/30 16:21:54;;;;;;;3.85;1.70;;;;;;;22.84;16.62;98921.56;10106494;29;20045;-78
2021/03/30 16:27:15;;;;;;;2.97;1.40;;;;;;;22.62;16.76;98915.00;10113015;29;20052;-79
2021/03/30 16:32:34;;;;;;;4.82;1.40;;;;;;;22.41;17.20;98911.38;10140713;29;20056;-83
2021/03/30 16:37:55;;;;;;;7.15;2.03;;;;;;;22.25;17.40;98917.16;10101335;29;20499;-81
2021/03/30 16:43:15;;;;;;;3.20;1.02;;;;;;;22.05;17.32;98912.72;10127106;29;20084;-83
2021/03/30 16:48:36;;;;;;;7.78;1.15;;;;;;;21.85;17.86;98916.19;10127060;29;20059;-81
2021/03/30 16:53:56;;;;;;;7.47;1.65;;;;;;;21.67;18.03;98907.63;10113411;29;20089;-82
2021/03/30 16:59:15;;;;;;;6.63;1.23;;;;;;;21.52;18.01;98914.13;10127705;29;20044;-86
2021/03/30 17:04:35;;;;;;;5.35;0.95;;;;;;;21.29;18.19;98911.66;10115080;29;20125;-84
2021/03/30 17:09:55;;;;;;;4.70;1.30;;;;;;;21.07;18.75;98905.72;10102200;29;20045;-82
2021/03/30 17:15:15;;;;;;;6.40;1.42;;;;;;;20.89;18.92;98904.91;10114733;29;20047;-82
2021/03/30 17:20:36;;;;;;;3.03;1.10;;;;;;;20.62;19.11;98906.50;10114962;29;20041;-85
2021/03/30 17:25:59;;;;;;;8.63;1.42;;;;;;;20.43;19.33;98912.72;10115378;29;20120;-89
2021/03/30 17:31:19;;;;;;;8.83;5.07;;;;;;;20.19;19.91;98910.16;10114829;29;20068;-84
2021/03/30 17:36:39;;;;;;;6.50;2.78;;;;;;;19.90;20.22;98910.88;10114128;29;20292;-84
2021/03/30 17:41:59;;;;;;;6.40;3.88;;;;;;;19.59;20.70;98911.47;10126859;29;20123;-79
2021/03/30 17:47:21;;;;;;;11.60;5.30;;;;;;;19.34;21.12;98914.38;10126794;29;20048;-79
2021/03/30 17:52:42;;;;;;;9.27;3.22;;;;;;;19.13;21.42;98912.59;10126580;29;20055;-76
2021/03/30 17:58:01;;;;;;;5.97;2.00;;;;;;;18.93;21.83;98909.44;10099927;29;20068;-80
2021/03/30 18:03:21;;;;;;;4.85;1.58;;;;;;;18.77;22.00;98908.56;10113149;29;20056;-79
2021/03/30 18:08:41;;;;;;;7.57;1.80;;;;;;;18.59;22.26;98909.00;10126035;29;20040;-79
2021/03/30 18:14:01;;;;;;;9.70;2.10;;;;;;;18.35;22.71;98915.44;10126062;29;20044;-84
2021/03/30 18:19:22;;;;;;;9.68;2.80;;;;;;;18.14;23.14;98919.19;10125490;29;20048;-79
2021/03/30 18:24:42;;;;;;;10.02;3.60;;;;;;;17.95;23.51;98914.59;10125325;29;20481;-82
2021/03/30 18:30:05;;;;;;;11.25;2.28;;;;;;;17.88;23.83;98921.28;10124958;29;20473;-82
2021/03/30 18:35:25;;;;;;;4.43;1.98;;;;;;;17.74;24.01;98912.69;10099102;29;20104;-78
2021/03/30 18:40:45;;;;;;;5.20;1.70;;;;;;;17.66;24.07;98912.19;10112046;29;20048;-89
2021/03/30 18:46:04;;;;;;;6.40;1.58;;;;;;;17.56;24.39;98906.69;10111415;29;20516;-86
2021/03/30 18:51:25;;;;;;;14.60;2.05;;;;;;;17.46;24.32;98906.09;10099912;29;20048;-89
2021/03/30 18:57:08;;;;;;;5.90;1.83;;;;;;;17.42;24.47;98900.97;10175450;24;20496;-85
2021/03/30 19:02:28;;;;;;;3.50;1.13;;;;;;;17.38;24.74;98906.38;10144717;29;20052;-84
2021/03/30 19:07:48;;;;;;;5.07;1.30;;;;;;;17.36;24.88;98900.59;10101907;29;20072;-87
2021/03/30 19:13:07;;;;;;;3.70;1.27;;;;;;;17.32;24.92;98897.53;10111374;29;20104;-82
2021/03/30 19:18:28;;;;;;;5.18;1.90;;;;;;;17.23;25.41;98887.13;10097262;29;20131;-77
2021/03/30 19:23:48;;;;;;;3.65;1.55;;;;;;;17.08;25.28;98890.44;10110111;29;20056;-80
2021/03/30 19:29:10;;;;;;;8.07;1.60;;;;;;;16.99;25.52;98894.88;10136274;29;20044;-80
2021/03/30 19:34:37;;;;;;;4.45;1.95;;;;;;;16.83;25.82;98886.16;10109862;29;20049;-78
2021/03/30 19:39:57;;;;;;;3.25;1.65;;;;;;;16.79;25.83;98883.09;10122698;29;20059;-82
2021/03/30 19:45:17;;;;;;;3.90;1.60;;;;;;;16.75;25.92;98888.47;10109422;29;20056;-79
2021/03/30 19:50:37;;;;;;;4.25;1.75;;;;;;;16.76;25.97;98889.22;10135438;29;20055;-84
2021/03/30 19:55:56;;;;;;;3.40;1.35;;;;;;;16.77;26.01;98894.22;10109802;29;20060;-80
2021/03/30 20:01:16;;;;;;;7.85;2.35;;;;;;;16.73;26.15;98882.72;10122408;29;20103;-80
2021/03/30 20:06:36;;;;;;;6.50;2.10;;;;;;;16.62;26.30;98886.25;10110743;29;20108;-80
2021/03/30 20:11:56;;;;;;;4.70;2.10;;;;;;;16.55;26.73;98884.38;10108872;29;20052;-79
2021/03/30 20:17:15;;;;;;;8.18;2.33;;;;;;;16.44;26.70;98904.81;10108839;29;20044;-84
2021/03/30 20:23:04;;;;;;;7.25;2.88;;;;;;;16.21;26.97;98900.59;10109846;29;20044;-84
2021/03/30 20:28:33;;;;;;;17.00;10.65;;;;;;;16.05;27.47;98910.81;10487186;24;20079;-82
2021/03/30 20:45:55;;;;;;;11.85;6.55;;;;;;;15.79;28.04;98911.91;10348224;23;20091;-79
2021/03/30 20:51:16;;;;;;;12.90;8.05;;;;;;;15.74;28.13;98914.47;10145905;29;20043;-79
2021/03/30 20:56:36;;;;;;;9.32;4.90;;;;;;;15.72;28.36;98914.31;10146952;29;20420;-79
2021/03/30 21:01:55;;;;;;;13.93;5.63;;;;;;;15.62;28.55;98910.09;10129588;29;20048;-79
2021/03/30 21:07:15;;;;;;;10.10;4.80;;;;;;;15.44;28.72;98913.16;10091096;29;20048;-79
2021/03/30 21:12:35;;;;;;;11.23;5.43;;;;;;;15.38;29.04;98912.75;10083253;29;20055;-79
2021/03/30 21:17:55;;;;;;;10.05;4.97;;;;;;;15.32;29.47;98905.97;10099586;29;20080;-79
2021/03/30 21:23:15;;;;;;;10.65;4.85;;;;;;;15.31;29.45;98910.13;10089251;29;20441;-79
2021/03/30 21:28:35;;;;;;;10.73;4.78;;;;;;;15.27;29.32;98909.88;10101875;29;20044;-79
2021/03/30 21:33:55;;;;;;;9.75;5.15;;;;;;;15.22;29.78;98902.47;10102054;29;20044;-79
2021/03/30 21:39:14;;;;;;;10.55;5.50;;;;;;;15.17;29.62;98902.22;10114604;29;20041;-78
2021/03/30 21:44:34;;;;;;;10.93;4.63;;;;;;;15.07;29.62;98898.72;10113801;29;20061;-77
2021/03/30 21:49:54;;;;;;;10.48;5.00;;;;;;;15.02;30.01;98894.13;10101249;29;20049;-79
2021/03/30 21:55:14;;;;;;;9.07;4.47;;;;;;;14.92;30.28;98898.34;10087866;29;20484;-79
2021/03/30 22:00:34;;;;;;;10.77;5.30;;;;;;;14.88;30.48;98888.28;10100655;29;20044;-79
2021/03/30 22:05:54;;;;;;;11.27;5.28;;;;;;;14.77;30.73;98888.19;10087997;29;20104;-78
2021/03/30 22:11:14;;;;;;;9.70;5.50;;;;;;;14.62;30.67;98880.09;10126147;29;20412;-79
2021/03/30 22:16:34;;;;;;;12.23;5.03;;;;;;;14.56;31.20;98880.41;10126345;29;20104;-79
2021/03/30 22:21:59;;;;;;;8.95;5.60;;;;;;;14.51;30.93;98873.78;10100185;29;20044;-79
2021/03/30 22:27:19;;;;;;;11.57;5.38;;;;;;;14.43;31.10;98861.94;10112520;29;20449;-79
2021/03/30 22:32:39;;;;;;;9.93;5.50;;;;;;;14.40;31.63;98863.13;10126091;29;20056;-79
2021/03/30 22:38:01;;;;;;;10.80;6.10;;;;;;;14.35;31.30;98861.38;10099664;29;20142;-78
2021/03/30 22:43:21;;;;;;;8.85;5.05;;;;;;;14.27;31.64;98863.59;10100012;29;20059;-78
2021/03/30 22:48:41;;;;;;;8.98;5.93;;;;;;;14.14;31.71;98864.06;10099278;29;20040;-79
2021/03/30 22:54:01;;;;;;;12.73;6.18;;;;;;;14.10;32.00;98863.81;10112117;29;20476;-80
2021/03/30 22:59:21;;;;;;;14.88;5.80;;;;;;;14.04;32.03;98873.25;10086045;29;20049;-78
2021/03/30 23:04:40;;;;;;;9.27;5.10;;;;;;;13.93;32.35;98873.84;10111526;29;20054;-79
2021/03/30 23:10:03;;;;;;;8.30;5.65;;;;;;;13.85;32.54;98870.47;10098739;29;20055;-79
2021/03/30 23:15:23;;;;;;;9.57;5.70;;;;;;;13.73;32.65;98869.56;10111413;29;20052;-79
2021/03/30 23:20:43;;;;;;;11.30;5.72;;;;;;;13.62;32.71;98870.16;10085941;29;20048;-79
2021/03/30 23:26:03;;;;;;;9.95;5.53;;;;;;;13.52;33.09;98858.22;10098215;29;20553;-79
2021/03/30 23:31:23;;;;;;;8.98;5.45;;;;;;;13.41;33.45;98860.25;10085329;29;20100;-78
2021/03/30 23:36:42;;;;;;;13.10;5.43;;;;;;;13.29;33.72;98862.16;10097411;29;20053;-78
2021/03/30 23:42:04;;;;;;;11.00;5.47;;;;;;;13.24;34.02;98851.97;10137791;29;20061;-79
2021/03/30 23:47:24;;;;;;;13.43;5.95;;;;;;;13.26;33.97;98854.19;10097151;29;20045;-79
2021/03/30 23:52:44;;;;;;;9.52;5.80;;;;;;;13.16;34.19;98851.34;10084525;29;20115;-79
2021/03/30 23:58:04;;;;;;;13.32;6.10;;;;;;;13.10;34.51;98839.66;10109814;29;20059;-79
